Time;durP1;ratioP1;P1;durP2;ratioP2;P2;SDS_P1;SDS_P2;PMS_P1;PMS_P2;Temp;Humidity;BMP_temperature;BMP_pressure;BME280_temperature;BME280_humidity;BME280_pressure;Samples;Min_cycle;Max_cycle;Signal;HPM_P1;HPM_P2
2022/04/09 00:00:48;;;;;;;4.70;1.08;;;;;;;;;;5037642;28;20131;-51
2022/04/09 00:03:14;;;;;;;4.35;1.20;;;;;;;;;;5046569;28;20144;-53
2022/04/09 00:05:40;;;;;;;5.28;1.58;;;;;;;;;;5050395;28;20044;-51
2022/04/09 00:08:06;;;;;;;5.05;1.25;;;;;;;;;;5049816;28;20033;-54
2022/04/09 00:10:32;;;;;;;4.10;1.02;;;;;;;;;;5050285;28;20136;-55
2022/04/09 00:12:58;;;;;;;5.20;1.60;;;;;;;;;;5050090;28;20021;-53
2022/04/09 00:15:24;;;;;;;4.78;1.45;;;;;;;;;;5050021;28;20410;-52
2022/04/09 00:17:51;;;;;;;6.45;1.48;;;;;;;;;;5048044;28;20131;-52
2022/04/09 00:20:18;;;;;;;7.10;2.08;;;;;;;;;;5049584;28;20102;-51
2022/04/09 00:22:44;;;;;;;7.20;1.50;;;;;;;;;;5049923;28;20056;-54
2022/04/09 00:25:11;;;;;;;5.97;1.52;;;;;;;;;;5049343;28;20071;-51
2022/04/09 00:27:37;;;;;;;7.32;2.42;;;;;;;;;;5050425;28;20029;-50
2022/04/09 00:30:04;;;;;;;6.15;1.75;;;;;;;;;;5048496;28;20422;-51
2022/04/09 00:32:30;;;;;;;5.38;1.25;;;;;;;;;;5047453;28;20100;-49
2022/04/09 00:34:56;;;;;;;5.78;1.50;;;;;;;;;;5049883;28;20175;-50
2022/04/09 00:37:22;;;;;;;6.25;1.45;;;;;;;;;;5049676;28;20056;-52
2022/04/09 00:39:48;;;;;;;5.90;1.60;;;;;;;;;;5050112;28;20138;-51
2022/04/09 00:42:15;;;;;;;5.53;1.52;;;;;;;;;;5049900;28;20079;-53
2022/04/09 00:44:41;;;;;;;4.82;1.10;;;;;;;;;;5049009;28;20033;-54
2022/04/09 00:47:07;;;;;;;5.47;1.60;;;;;;;;;;5034617;28;20053;-52
2022/04/09 00:49:36;;;;;;;8.57;2.20;;;;;;;;;;5045363;28;20039;-54
2022/04/09 00:52:03;;;;;;;6.45;1.63;;;;;;;;;;5029666;28;20034;-50
2022/04/09 00:54:31;;;;;;;7.45;1.60;;;;;;;;;;5044477;28;20817;-54
2022/04/09 00:57:03;;;;;;;6.22;1.75;;;;;;;;;;5048956;28;20037;-47
2022/04/09 00:59:30;;;;;;;4.35;1.35;;;;;;;;;;5047137;28;20411;-53
2022/04/09 01:01:56;;;;;;;5.43;1.30;;;;;;;;;;5049239;28;20104;-52
2022/04/09 01:04:24;;;;;;;4.65;1.40;;;;;;;;;;5049215;28;20427;-52
2022/04/09 01:06:50;;;;;;;6.32;1.70;;;;;;;;;;5048699;28;20103;-52
2022/04/09 01:09:16;;;;;;;5.20;1.55;;;;;;;;;;5047226;28;20021;-53
2022/04/09 01:11:42;;;;;;;4.28;1.40;;;;;;;;;;5048230;28;20073;-52
2022/04/09 01:14:11;;;;;;;3.10;1.20;;;;;;;;;;5047779;28;20140;-51
2022/04/09 01:16:37;;;;;;;5.35;1.40;;;;;;;;;;5037773;28;20237;-53
2022/04/09 01:19:03;;;;;;;3.80;1.23;;;;;;;;;;5033371;28;20060;-53
2022/04/09 01:21:29;;;;;;;8.10;1.45;;;;;;;;;;5048292;28;20059;-53
2022/04/09 01:23:55;;;;;;;5.13;1.25;;;;;;;;;;5047875;28;20025;-54
2022/04/09 01:26:22;;;;;;;5.57;1.50;;;;;;;;;;5047030;28;20020;-53
2022/04/09 01:28:49;;;;;;;5.30;1.80;;;;;;;;;;5028288;28;20045;-50
2022/04/09 01:31:16;;;;;;;4.70;1.30;;;;;;;;;;5045106;28;20194;-53
2022/04/09 01:33:42;;;;;;;6.45;1.77;;;;;;;;;;5047480;28;20686;-53
2022/04/09 01:36:08;;;;;;;7.55;1.80;;;;;;;;;;5046020;28;20102;-53
2022/04/09 01:38:35;;;;;;;4.47;1.40;;;;;;;;;;5048903;28;20029;-53
2022/04/09 01:41:01;;;;;;;4.22;1.17;;;;;;;;;;5048245;28;20108;-49
2022/04/09 01:43:28;;;;;;;5.75;1.50;;;;;;;;;;5048373;28;20060;-51
2022/04/09 01:45:54;;;;;;;8.32;1.60;;;;;;;;;;5048472;28;20533;-52
2022/04/09 01:48:20;;;;;;;5.25;1.30;;;;;;;;;;5048567;28;20104;-50
2022/04/09 01:50:47;;;;;;;3.67;1.20;;;;;;;;;;5047077;28;20036;-50
2022/04/09 01:53:13;;;;;;;6.25;1.50;;;;;;;;;;5043738;28;20036;-52
2022/04/09 01:55:39;;;;;;;5.90;1.42;;;;;;;;;;5036935;28;20123;-52
2022/04/09 01:58:05;;;;;;;5.75;1.50;;;;;;;;;;5048507;28;20130;-50
2022/04/09 02:00:31;;;;;;;6.18;1.42;;;;;;;;;;5040952;28;20102;-48
2022/04/09 02:02:57;;;;;;;3.58;1.38;;;;;;;;;;5048140;28;20138;-48
2022/04/09 02:05:24;;;;;;;5.50;1.38;;;;;;;;;;5032113;28;20621;-51
2022/04/09 02:07:51;;;;;;;1.92;0.85;;;;;;;;;;5033766;28;20041;-52
2022/04/09 02:10:18;;;;;;;6.50;1.38;;;;;;;;;;5047662;28;20025;-49
2022/04/09 02:12:44;;;;;;;5.78;1.70;;;;;;;;;;5048369;28;20028;-52
2022/04/09 02:15:11;;;;;;;4.65;1.40;;;;;;;;;;5048280;28;20087;-50
2022/04/09 02:17:38;;;;;;;7.70;2.15;;;;;;;;;;5046554;28;20112;-50
2022/04/09 02:20:07;;;;;;;4.72;1.33;;;;;;;;;;5048560;28;20105;-50
2022/04/09 02:22:37;;;;;;;9.35;3.13;;;;;;;;;;5047355;28;20033;-52
2022/04/09 02:25:04;;;;;;;7.03;1.90;;;;;;;;;;5047655;28;20705;-50
2022/04/09 02:27:30;;;;;;;5.63;1.30;;;;;;;;;;5046952;28;20025;-49
2022/04/09 02:29:56;;;;;;;4.35;1.55;;;;;;;;;;5047503;28;20053;-53
2022/04/09 02:32:22;;;;;;;7.93;1.70;;;;;;;;;;5044481;28;20430;-53
2022/04/09 02:34:49;;;;;;;5.60;1.55;;;;;;;;;;5031445;28;20044;-52
2022/04/09 02:37:16;;;;;;;4.88;1.25;;;;;;;;;;5044545;28;20033;-51
2022/04/09 02:39:43;;;;;;;4.72;1.13;;;;;;;;;;5047993;28;20108;-53
2022/04/09 02:42:12;;;;;;;4.80;1.35;;;;;;;;;;5048169;28;20033;-53
2022/04/09 02:44:39;;;;;;;3.58;1.40;;;;;;;;;;5032507;28;20501;-50
2022/04/09 02:47:05;;;;;;;4.97;1.27;;;;;;;;;;5032032;28;21090;-56
2022/04/09 02:49:31;;;;;;;4.20;1.10;;;;;;;;;;5046832;28;20033;-51
2022/04/09 02:51:57;;;;;;;7.10;2.05;;;;;;;;;;5046896;28;20033;-51
2022/04/09 02:54:23;;;;;;;6.70;1.40;;;;;;;;;;5047503;28;20037;-50
2022/04/09 02:56:49;;;;;;;7.38;1.73;;;;;;;;;;5048205;28;20037;-49
2022/04/09 02:59:16;;;;;;;5.32;1.38;;;;;;;;;;5044313;28;20579;-53
2022/04/09 03:01:46;;;;;;;6.50;1.67;;;;;;;;;;5041125;28;20455;-52
2022/04/09 03:04:12;;;;;;;5.07;1.27;;;;;;;;;;5030047;28;20155;-51
2022/04/09 03:06:38;;;;;;;5.70;1.92;;;;;;;;;;5043802;28;20033;-53
2022/04/09 03:09:05;;;;;;;6.03;1.40;;;;;;;;;;5047725;28;20052;-53
2022/04/09 03:11:31;;;;;;;7.78;1.40;;;;;;;;;;5048023;28;20112;-54
2022/04/09 03:13:57;;;;;;;6.07;1.88;;;;;;;;;;5047446;28;20025;-52
2022/04/09 03:16:23;;;;;;;3.22;0.85;;;;;;;;;;5047827;28;20036;-51
2022/04/09 03:18:49;;;;;;;6.88;1.52;;;;;;;;;;5046551;28;20031;-54
2022/04/09 03:21:15;;;;;;;3.35;0.90;;;;;;;;;;5038336;28;20021;-52
2022/04/09 03:23:41;;;;;;;4.60;1.83;;;;;;;;;;5035855;28;20030;-50
2022/04/09 03:26:07;;;;;;;7.18;1.70;;;;;;;;;;5047064;28;20036;-51
2022/04/09 03:28:35;;;;;;;4.53;1.10;;;;;;;;;;5047080;28;20108;-51
2022/04/09 03:31:01;;;;;;;6.13;1.33;;;;;;;;;;5027591;28;20137;-54
2022/04/09 03:33:27;;;;;;;5.35;1.33;;;;;;;;;;5030075;28;20602;-52
2022/04/09 03:35:54;;;;;;;4.85;1.30;;;;;;;;;;5046503;28;20025;-53
2022/04/09 03:38:20;;;;;;;5.25;1.33;;;;;;;;;;5044855;28;20196;-52
2022/04/09 03:40:46;;;;;;;4.15;1.30;;;;;;;;;;5036281;28;20032;-53
2022/04/09 03:43:12;;;;;;;6.70;1.40;;;;;;;;;;5047246;28;20078;-51
2022/04/09 03:45:39;;;;;;;6.45;1.50;;;;;;;;;;5047474;28;20120;-53
2022/04/09 03:48:06;;;;;;;3.40;1.00;;;;;;;;;;5046799;28;20634;-55
2022/04/09 03:50:32;;;;;;;3.58;1.52;;;;;;;;;;5040170;28;20475;-55
2022/04/09 03:53:00;;;;;;;5.00;1.38;;;;;;;;;;5046950;28;20396;-51
2022/04/09 03:55:28;;;;;;;5.85;1.30;;;;;;;;;;5045892;28;20052;-55
2022/04/09 03:57:54;;;;;;;4.30;1.23;;;;;;;;;;5046060;28;20041;-54
2022/04/09 04:00:21;;;;;;;4.30;1.48;;;;;;;;;;5046761;28;20075;-52
2022/04/09 04:02:47;;;;;;;7.25;1.50;;;;;;;;;;5045784;28;20029;-51
2022/04/09 04:05:13;;;;;;;6.75;1.38;;;;;;;;;;5043593;28;20542;-55
2022/04/09 04:07:43;;;;;;;4.40;2.20;;;;;;;;;;5050965;28;20174;-54
2022/04/09 04:10:10;;;;;;;6.40;1.58;;;;;;;;;;5049036;28;20551;-54
2022/04/09 04:12:36;;;;;;;6.07;1.60;;;;;;;;;;5048562;28;20025;-50
2022/04/09 04:15:03;;;;;;;5.50;1.35;;;;;;;;;;5041453;28;20581;-51
2022/04/09 04:17:43;;;;;;;5.03;1.30;;;;;;;;;;5050257;28;20033;-49
2022/04/09 04:20:10;;;;;;;3.83;1.40;;;;;;;;;;5039545;28;20032;-52
2022/04/09 04:22:36;;;;;;;4.60;1.30;;;;;;;;;;5048766;28;20025;-51
2022/04/09 04:25:03;;;;;;;3.78;1.10;;;;;;;;;;5043149;28;20017;-52
2022/04/09 04:27:29;;;;;;;4.03;1.00;;;;;;;;;;5050399;28;20029;-52
2022/04/09 04:29:58;;;;;;;5.40;1.10;;;;;;;;;;5043660;28;20255;-51
2022/04/09 04:32:24;;;;;;;4.75;1.38;;;;;;;;;;5049664;28;20120;-53
2022/04/09 04:34:50;;;;;;;5.80;1.20;;;;;;;;;;5049902;28;20119;-52
2022/04/09 04:37:16;;;;;;;5.25;1.10;;;;;;;;;;5049799;28;20029;-49
2022/04/09 04:39:43;;;;;;;7.03;1.48;;;;;;;;;;5049695;28;20112;-52
2022/04/09 04:42:09;;;;;;;15.63;2.60;;;;;;;;;;5049303;28;20032;-52
2022/04/09 04:44:35;;;;;;;11.15;2.10;;;;;;;;;;5034488;28;20496;-53
2022/04/09 04:47:01;;;;;;;22.73;2.28;;;;;;;;;;5042692;28;20475;-54
2022/04/09 04:49:27;;;;;;;10.93;1.75;;;;;;;;;;5049936;28;20100;-51
2022/04/09 04:51:53;;;;;;;15.68;2.05;;;;;;;;;;5050151;28;20112;-54
2022/04/09 04:54:19;;;;;;;13.15;2.55;;;;;;;;;;5048419;28;20123;-50
2022/04/09 04:56:45;;;;;;;12.13;1.88;;;;;;;;;;5043883;28;20442;-52
2022/04/09 04:59:11;;;;;;;21.63;2.75;;;;;;;;;;5049507;28;20025;-53
2022/04/09 05:01:40;;;;;;;9.00;2.10;;;;;;;;;;5049632;28;20082;-51
2022/04/09 05:04:07;;;;;;;9.05;1.67;;;;;;;;;;5039526;28;20036;-53
2022/04/09 05:06:34;;;;;;;11.82;2.10;;;;;;;;;;5050346;28;20136;-55
2022/04/09 05:09:00;;;;;;;7.10;1.70;;;;;;;;;;5047768;28;20505;-55
2022/04/09 05:11:28;;;;;;;10.43;1.70;;;;;;;;;;5046692;28;20633;-54
2022/04/09 05:13:54;;;;;;;7.72;1.30;;;;;;;;;;5049847;28;20108;-54
2022/04/09 05:16:20;;;;;;;7.32;1.30;;;;;;;;;;5049583;28;20036;-53
2022/04/09 05:18:46;;;;;;;8.27;1.83;;;;;;;;;;5049406;28;20032;-53
2022/04/09 05:21:12;;;;;;;5.60;1.30;;;;;;;;;;5050726;28;20033;-53
2022/04/09 05:23:38;;;;;;;7.75;1.75;;;;;;;;;;5050181;28;20029;-51
2022/04/09 05:26:04;;;;;;;7.90;1.90;;;;;;;;;;5048903;28;20056;-55
2022/04/09 05:28:30;;;;;;;11.73;2.83;;;;;;;;;;5049314;28;20024;-51
2022/04/09 05:30:56;;;;;;;8.85;2.03;;;;;;;;;;5049690;28;20056;-51
2022/04/09 05:33:22;;;;;;;7.55;1.65;;;;;;;;;;5046490;28;20392;-51
2022/04/09 05:35:48;;;;;;;8.40;1.52;;;;;;;;;;5043329;28;20029;-55
2022/04/09 05:38:14;;;;;;;9.27;1.88;;;;;;;;;;5044091;28;20051;-55
2022/04/09 05:40:42;;;;;;;8.57;1.50;;;;;;;;;;5037392;28;20546;-52
2022/04/09 05:43:08;;;;;;;9.68;1.73;;;;;;;;;;5041134;28;20064;-53
2022/04/09 05:45:34;;;;;;;11.07;2.15;;;;;;;;;;5043995;28;20055;-54
2022/04/09 05:48:00;;;;;;;20.42;3.78;;;;;;;;;;5041216;28;20142;-53
2022/04/09 05:50:26;;;;;;;9.88;2.55;;;;;;;;;;5042120;28;20444;-51
2022/04/09 05:52:54;;;;;;;14.68;2.45;;;;;;;;;;5039884;28;20024;-52
2022/04/09 05:55:20;;;;;;;10.13;2.03;;;;;;;;;;5043088;28;20098;-48
2022/04/09 05:57:46;;;;;;;14.25;2.45;;;;;;;;;;5038651;28;20458;-51
2022/04/09 06:00:13;;;;;;;7.40;1.35;;;;;;;;;;5040454;28;20022;-52
2022/04/09 06:02:39;;;;;;;12.57;1.88;;;;;;;;;;5039705;28;20040;-50
2022/04/09 06:05:09;;;;;;;14.75;1.83;;;;;;;;;;5042138;28;20108;-55
2022/04/09 06:07:35;;;;;;;14.13;1.90;;;;;;;;;;5039191;28;20084;-54
2022/04/09 06:10:03;;;;;;;8.63;1.60;;;;;;;;;;5042350;28;20047;-54
2022/04/09 06:12:29;;;;;;;13.90;1.75;;;;;;;;;;5038918;28;20024;-51
2022/04/09 06:14:56;;;;;;;12.95;2.08;;;;;;;;;;5040098;28;20072;-55
2022/04/09 06:17:25;;;;;;;15.45;1.70;;;;;;;;;;5039585;28;20538;-53
2022/04/09 06:19:51;;;;;;;12.77;2.22;;;;;;;;;;5043091;28;20071;-55
2022/04/09 06:22:18;;;;;;;15.90;2.28;;;;;;;;;;5039545;28;20071;-53
2022/04/09 06:24:44;;;;;;;12.57;1.30;;;;;;;;;;5040031;28;20028;-54
2022/04/09 06:27:14;;;;;;;11.63;1.85;;;;;;;;;;5036755;28;20029;-55
2022/04/09 06:29:40;;;;;;;6.40;1.27;;;;;;;;;;5040913;28;20045;-54
2022/04/09 06:32:06;;;;;;;11.65;1.80;;;;;;;;;;5041847;28;20101;-54
2022/04/09 06:34:32;;;;;;;12.02;1.83;;;;;;;;;;5038912;28;20111;-56
2022/04/09 06:36:59;;;;;;;13.48;2.58;;;;;;;;;;5039563;28;20108;-55
2022/04/09 06:39:25;;;;;;;9.60;1.75;;;;;;;;;;5039039;28;20082;-55
2022/04/09 06:41:51;;;;;;;6.32;1.10;;;;;;;;;;5043472;28;20021;-54
2022/04/09 06:44:17;;;;;;;7.03;1.40;;;;;;;;;;5037092;28;20555;-54
2022/04/09 06:46:45;;;;;;;10.35;2.05;;;;;;;;;;5046203;28;20037;-54
2022/04/09 06:49:12;;;;;;;9.93;1.35;;;;;;;;;;5048155;28;20028;-55
2022/04/09 06:51:38;;;;;;;11.80;1.23;;;;;;;;;;5047242;28;20044;-55
2022/04/09 06:54:05;;;;;;;10.00;1.40;;;;;;;;;;5027781;28;20495;-52
2022/04/09 06:56:31;;;;;;;7.85;2.10;;;;;;;;;;5041578;28;20605;-53
2022/04/09 06:58:57;;;;;;;6.20;1.38;;;;;;;;;;5047563;28;20052;-51
2022/04/09 07:01:23;;;;;;;7.68;1.33;;;;;;;;;;5047356;28;20463;-53
2022/04/09 07:03:49;;;;;;;8.07;1.35;;;;;;;;;;5047829;28;20037;-56
2022/04/09 07:06:16;;;;;;;7.60;1.30;;;;;;;;;;5043051;28;20102;-55
2022/04/09 07:08:43;;;;;;;7.43;1.40;;;;;;;;;;5037511;28;20739;-53
2022/04/09 07:11:09;;;;;;;6.47;1.23;;;;;;;;;;5040025;28;20040;-51
2022/04/09 07:13:35;;;;;;;8.07;1.77;;;;;;;;;;5038496;28;20044;-54
2022/04/09 07:16:01;;;;;;;8.65;1.23;;;;;;;;;;5038110;28;20498;-51
2022/04/09 07:18:27;;;;;;;6.72;1.30;;;;;;;;;;5039194;28;20028;-56
2022/04/09 07:20:54;;;;;;;6.85;1.70;;;;;;;;;;5038665;28;20029;-53
2022/04/09 07:23:20;;;;;;;8.43;1.60;;;;;;;;;;5040628;28;20029;-56
2022/04/09 07:25:46;;;;;;;8.43;1.00;;;;;;;;;;5034595;28;20025;-55
2022/04/09 07:28:12;;;;;;;9.88;1.60;;;;;;;;;;5036215;28;20044;-53
2022/04/09 07:30:38;;;;;;;12.35;1.90;;;;;;;;;;5030954;28;20061;-54
2022/04/09 07:33:05;;;;;;;11.10;1.90;;;;;;;;;;5037054;28;20121;-54
2022/04/09 07:35:32;;;;;;;6.85;1.40;;;;;;;;;;5029446;28;20098;-55
2022/04/09 07:38:00;;;;;;;12.30;2.13;;;;;;;;;;5040735;28;20033;-56
2022/04/09 07:40:28;;;;;;;8.95;1.60;;;;;;;;;;5043501;28;20167;-55
2022/04/09 07:42:54;;;;;;;15.02;1.60;;;;;;;;;;5046407;28;20029;-50
2022/04/09 07:45:21;;;;;;;12.25;1.75;;;;;;;;;;5050347;28;20465;-53
2022/04/09 07:47:47;;;;;;;17.02;1.17;;;;;;;;;;5050364;28;20033;-55
2022/04/09 07:50:14;;;;;;;12.35;1.52;;;;;;;;;;5051293;28;20037;-55
2022/04/09 07:52:42;;;;;;;16.50;1.83;;;;;;;;;;5050909;28;20021;-55
2022/04/09 07:55:09;;;;;;;24.58;2.20;;;;;;;;;;5048687;28;20136;-56
2022/04/09 07:57:35;;;;;;;13.95;2.30;;;;;;;;;;5049754;28;20452;-56
2022/04/09 08:00:01;;;;;;;18.85;2.00;;;;;;;;;;5050939;28;20028;-51
2022/04/09 08:02:30;;;;;;;15.52;2.65;;;;;;;;;;5048374;28;20472;-55
2022/04/09 08:04:56;;;;;;;26.20;2.67;;;;;;;;;;5041970;28;20017;-51
2022/04/09 08:07:22;;;;;;;11.95;1.50;;;;;;;;;;5049824;28;20054;-56
2022/04/09 08:09:49;;;;;;;17.85;2.75;;;;;;;;;;5050557;28;20462;-52
2022/04/09 08:12:15;;;;;;;18.55;2.15;;;;;;;;;;5039239;28;20052;-52
2022/04/09 08:14:41;;;;;;;16.73;1.77;;;;;;;;;;5048430;28;20033;-54
2022/04/09 08:17:08;;;;;;;15.27;2.17;;;;;;;;;;5037833;28;20149;-56
2022/04/09 08:19:34;;;;;;;16.25;2.03;;;;;;;;;;5047272;28;20487;-53
2022/04/09 08:22:01;;;;;;;15.18;1.75;;;;;;;;;;5050805;28;20029;-53
2022/04/09 08:24:27;;;;;;;23.92;2.22;;;;;;;;;;5050515;28;20681;-53
2022/04/09 08:26:53;;;;;;;12.80;2.00;;;;;;;;;;5049963;28;20029;-52
2022/04/09 08:29:20;;;;;;;11.73;1.90;;;;;;;;;;5050561;28;20057;-54
2022/04/09 08:31:49;;;;;;;16.45;1.80;;;;;;;;;;5047778;28;20111;-51
2022/04/09 08:34:17;;;;;;;19.15;2.42;;;;;;;;;;5047314;28;20041;-54
2022/04/09 08:36:43;;;;;;;11.68;1.55;;;;;;;;;;5050570;28;20712;-54
2022/04/09 08:39:09;;;;;;;24.45;1.60;;;;;;;;;;5050312;28;20124;-53
2022/04/09 08:41:44;;;;;;;17.75;2.58;;;;;;;;;;5040903;28;20108;-54
2022/04/09 08:44:11;;;;;;;8.15;1.83;;;;;;;;;;5043450;28;20032;-53
2022/04/09 08:46:39;;;;;;;10.27;1.63;;;;;;;;;;5037023;28;20021;-52
2022/04/09 08:49:06;;;;;;;11.65;1.90;;;;;;;;;;5034156;28;20055;-54
2022/04/09 08:51:32;;;;;;;16.77;1.95;;;;;;;;;;5048987;28;20029;-53
2022/04/09 08:54:04;;;;;;;21.10;2.15;;;;;;;;;;5050547;28;20033;-53
2022/04/09 08:56:31;;;;;;;9.55;2.33;;;;;;;;;;5049960;28;20055;-52
2022/04/09 08:58:58;;;;;;;15.18;1.80;;;;;;;;;;5050070;28;20049;-50
2022/04/09 09:01:24;;;;;;;12.23;2.33;;;;;;;;;;5047331;28;20079;-51
2022/04/09 09:03:51;;;;;;;14.95;1.60;;;;;;;;;;5050534;28;20029;-50
2022/04/09 09:06:28;;;;;;;14.32;2.53;;;;;;;;;;5041401;28;20028;-54
2022/04/09 09:08:54;;;;;;;10.35;2.00;;;;;;;;;;5035361;28;20095;-52
2022/04/09 09:11:20;;;;;;;11.93;2.28;;;;;;;;;;5047168;28;20032;-54
2022/04/09 09:13:50;;;;;;;11.10;1.55;;;;;;;;;;5049945;28;20063;-50
2022/04/09 09:16:27;;;;;;;19.35;2.13;;;;;;;;;;5047030;28;20025;-53
2022/04/09 09:18:54;;;;;;;18.65;1.92;;;;;;;;;;5050723;28;20029;-54
2022/04/09 09:21:26;;;;;;;23.27;2.22;;;;;;;;;;5042294;28;20046;-53
2022/04/09 09:23:52;;;;;;;29.73;2.90;;;;;;;;;;5046215;28;20560;-50
2022/04/09 09:26:22;;;;;;;20.33;1.40;;;;;;;;;;5037205;28;20013;-53
2022/04/09 09:28:55;;;;;;;12.40;2.42;;;;;;;;;;5029792;28;20028;-53
2022/04/09 09:31:43;;;;;;;16.58;1.50;;;;;;;;;;5033304;28;20034;-52
2022/04/09 09:34:10;;;;;;;20.70;2.72;;;;;;;;;;5029486;28;20084;-53
2022/04/09 09:36:38;;;;;;;17.48;1.48;;;;;;;;;;5039717;28;20029;-51
2022/04/09 09:39:05;;;;;;;19.70;2.53;;;;;;;;;;5034190;28;20029;-54
2022/04/09 09:41:32;;;;;;;11.57;1.58;;;;;;;;;;5035142;28;20494;-54
2022/04/09 09:44:02;;;;;;;12.07;1.88;;;;;;;;;;5032974;28;20108;-53
2022/04/09 09:46:28;;;;;;;;;;;;;;;;;;5033484;28;20408;-54
2022/04/09 09:48:54;;;;;;;6.22;1.33;;;;;;;;;;5039973;28;19944;-53
2022/04/09 09:51:23;;;;;;;14.88;2.05;;;;;;;;;;5048400;28;20111;-51
2022/04/09 09:53:49;;;;;;;14.10;2.53;;;;;;;;;;5048384;28;20029;-52
2022/04/09 09:56:35;;;;;;;12.55;1.35;;;;;;;;;;5048347;28;20032;-52
2022/04/09 09:59:01;;;;;;;7.38;1.67;;;;;;;;;;5034701;28;20108;-53
2022/04/09 10:01:27;;;;;;;11.68;1.50;;;;;;;;;;5040052;28;20071;-55
2022/04/09 10:03:54;;;;;;;14.27;2.13;;;;;;;;;;5048348;28;20039;-54
2022/04/09 10:06:21;;;;;;;14.18;1.80;;;;;;;;;;5048577;28;20029;-52
2022/04/09 10:08:48;;;;;;;17.73;1.98;;;;;;;;;;5048269;28;20075;-52
2022/04/09 10:11:17;;;;;;;14.23;1.27;;;;;;;;;;5042391;28;20136;-52
2022/04/09 10:13:44;;;;;;;8.65;1.20;;;;;;;;;;5046579;28;20128;-54
2022/04/09 10:16:12;;;;;;;8.88;1.90;;;;;;;;;;5042991;28;20033;-53
2022/04/09 10:18:39;;;;;;;9.45;1.40;;;;;;;;;;5048353;28;20112;-52
2022/04/09 10:21:05;;;;;;;8.50;1.25;;;;;;;;;;5049032;28;20083;-54
2022/04/09 10:23:33;;;;;;;7.72;1.33;;;;;;;;;;5048277;28;20025;-54
2022/04/09 10:26:01;;;;;;;7.78;1.42;;;;;;;;;;5048791;28;20149;-54
2022/04/09 10:28:35;;;;;;;5.30;1.17;;;;;;;;;;5048658;28;20055;-52
2022/04/09 10:31:01;;;;;;;17.13;1.65;;;;;;;;;;5047633;28;20091;-53
2022/04/09 10:33:28;;;;;;;7.78;1.75;;;;;;;;;;5048098;28;20028;-51
2022/04/09 10:36:01;;;;;;;8.68;1.73;;;;;;;;;;5040017;28;20059;-53
2022/04/09 10:38:28;;;;;;;10.57;1.80;;;;;;;;;;5033964;28;20126;-55
2022/04/09 10:40:55;;;;;;;12.10;1.10;;;;;;;;;;5032967;28;20061;-54
2022/04/09 10:43:30;;;;;;;11.32;1.23;;;;;;;;;;5033654;28;20040;-53
2022/04/09 10:46:05;;;;;;;14.27;1.38;;;;;;;;;;5030198;28;20029;-50
2022/04/09 10:48:35;;;;;;;10.98;1.38;;;;;;;;;;5033526;28;20083;-51
2022/04/09 10:51:08;;;;;;;11.90;1.73;;;;;;;;;;5033112;28;20033;-53
2022/04/09 10:53:38;;;;;;;5.57;1.00;;;;;;;;;;5028257;28;20095;-53
2022/04/09 10:56:32;;;;;;;10.85;1.85;;;;;;;;;;5030419;28;20048;-53
2022/04/09 10:59:00;;;;;;;10.95;1.42;;;;;;;;;;5034029;28;20096;-51
2022/04/09 11:01:51;;;;;;;10.05;1.17;;;;;;;;;;5029443;28;20037;-54
2022/04/09 11:04:32;;;;;;;6.53;1.38;;;;;;;;;;5029900;28;20399;-54
2022/04/09 11:07:02;;;;;;;11.15;1.50;;;;;;;;;;5031480;28;20930;-51
2022/04/09 11:09:28;;;;;;;;;;;;;;;;;;5038893;28;20050;-51
2022/04/09 11:12:04;;;;;;;10.95;1.20;;;;;;;;;;5038114;28;19909;-50
2022/04/09 11:14:31;;;;;;;5.97;1.30;;;;;;;;;;5043657;28;20631;-53
2022/04/09 11:16:58;;;;;;;6.65;1.35;;;;;;;;;;5045288;28;20814;-51
2022/04/09 11:19:24;;;;;;;6.97;1.10;;;;;;;;;;5046163;28;20326;-52
2022/04/09 11:21:50;;;;;;;11.20;1.63;;;;;;;;;;5050399;28;20025;-53
2022/04/09 11:24:17;;;;;;;6.68;1.42;;;;;;;;;;5054588;28;20029;-50
2022/04/09 11:26:54;;;;;;;5.88;1.10;;;;;;;;;;5055141;28;20040;-55
2022/04/09 11:29:20;;;;;;;11.82;1.70;;;;;;;;;;5066154;28;20135;-50
2022/04/09 11:31:47;;;;;;;6.53;1.17;;;;;;;;;;5053887;28;20096;-54
2022/04/09 11:34:14;;;;;;;6.75;1.42;;;;;;;;;;5043438;28;20036;-53
2022/04/09 11:36:40;;;;;;;4.22;1.00;;;;;;;;;;5046645;28;20051;-52
2022/04/09 11:39:06;;;;;;;6.47;1.02;;;;;;;;;;5045400;28;20116;-55
2022/04/09 11:41:32;;;;;;;3.92;0.90;;;;;;;;;;5043356;28;20112;-55
2022/04/09 11:44:00;;;;;;;11.15;1.50;;;;;;;;;;5041872;28;20426;-56
2022/04/09 11:46:31;;;;;;;4.55;1.10;;;;;;;;;;5050001;28;20033;-51
2022/04/09 11:49:00;;;;;;;7.38;1.25;;;;;;;;;;5064618;28;20068;-55
2022/04/09 11:51:26;;;;;;;5.20;0.98;;;;;;;;;;5052445;28;20495;-54
2022/04/09 11:53:52;;;;;;;7.90;1.38;;;;;;;;;;5049317;28;20024;-54
2022/04/09 11:56:18;;;;;;;6.78;1.20;;;;;;;;;;5050991;28;20028;-55
2022/04/09 11:58:44;;;;;;;3.28;1.00;;;;;;;;;;5049916;28;20055;-55
2022/04/09 12:01:10;;;;;;;4.55;0.80;;;;;;;;;;5057892;28;20021;-52
2022/04/09 12:03:40;;;;;;;5.70;1.38;;;;;;;;;;5058956;28;20487;-55
2022/04/09 12:06:07;;;;;;;9.07;1.13;;;;;;;;;;5048195;28;20037;-53
2022/04/09 12:08:36;;;;;;;4.22;0.90;;;;;;;;;;5050761;28;20041;-53
2022/04/09 12:11:03;;;;;;;5.53;0.98;;;;;;;;;;5057908;28;20487;-52
2022/04/09 12:13:30;;;;;;;6.72;1.15;;;;;;;;;;5049762;28;20112;-52
2022/04/09 12:16:04;;;;;;;10.10;1.20;;;;;;;;;;5050117;28;20087;-56
2022/04/09 12:18:36;;;;;;;5.43;1.00;;;;;;;;;;5044779;28;20041;-54
2022/04/09 12:21:17;;;;;;;4.45;1.05;;;;;;;;;;5061147;28;20534;-54
2022/04/09 12:23:43;;;;;;;7.53;1.05;;;;;;;;;;5051516;28;20765;-53
2022/04/09 12:26:21;;;;;;;4.80;0.95;;;;;;;;;;5055331;28;20044;-54
2022/04/09 12:28:47;;;;;;;7.93;1.52;;;;;;;;;;5050642;28;20028;-54
2022/04/09 12:31:25;;;;;;;4.75;1.00;;;;;;;;;;5064125;28;20333;-54
2022/04/09 12:33:59;;;;;;;5.65;0.98;;;;;;;;;;5053421;28;20049;-56
2022/04/09 12:36:25;;;;;;;5.43;0.98;;;;;;;;;;5054999;28;20037;-55
2022/04/09 12:38:51;;;;;;;4.95;1.02;;;;;;;;;;5046990;28;20029;-53
2022/04/09 12:41:17;;;;;;;6.07;1.45;;;;;;;;;;5049588;28;20143;-54
2022/04/09 12:43:43;;;;;;;6.20;0.82;;;;;;;;;;5050765;28;20087;-56
2022/04/09 12:46:13;;;;;;;7.88;1.38;;;;;;;;;;5058170;28;20039;-53
2022/04/09 12:48:43;;;;;;;6.03;1.00;;;;;;;;;;5052099;28;20056;-53
2022/04/09 12:51:10;;;;;;;4.82;1.00;;;;;;;;;;5049281;28;20074;-54
2022/04/09 12:53:37;;;;;;;5.22;0.73;;;;;;;;;;5056462;28;20027;-56
2022/04/09 12:56:07;;;;;;;4.15;0.95;;;;;;;;;;5056800;28;20048;-55
2022/04/09 12:58:33;;;;;;;3.83;0.93;;;;;;;;;;5056001;28;20028;-53
2022/04/09 13:00:59;;;;;;;2.95;0.80;;;;;;;;;;5063061;28;20514;-55
2022/04/09 13:03:26;;;;;;;4.35;1.02;;;;;;;;;;5055360;28;20537;-53
2022/04/09 13:05:52;;;;;;;4.03;1.35;;;;;;;;;;5059671;28;20697;-54
2022/04/09 13:08:18;;;;;;;8.65;2.00;;;;;;;;;;5060348;28;20615;-55
2022/04/09 13:10:44;;;;;;;4.10;1.33;;;;;;;;;;5049113;28;20025;-56
2022/04/09 13:13:10;;;;;;;7.38;0.80;;;;;;;;;;5055446;28;20074;-55
2022/04/09 13:15:36;;;;;;;6.10;1.13;;;;;;;;;;5061875;28;20032;-53
2022/04/09 13:18:02;;;;;;;4.07;0.90;;;;;;;;;;5063115;28;20025;-55
2022/04/09 13:20:28;;;;;;;4.88;0.90;;;;;;;;;;5049537;28;20099;-54
2022/04/09 13:22:54;;;;;;;1.85;0.63;;;;;;;;;;5049508;28;20618;-55
2022/04/09 13:25:20;;;;;;;2.45;0.70;;;;;;;;;;5049250;28;20036;-55
2022/04/09 13:27:47;;;;;;;6.57;1.20;;;;;;;;;;5054104;28;20024;-54
2022/04/09 13:30:14;;;;;;;3.90;1.13;;;;;;;;;;5049929;28;20418;-53
2022/04/09 13:32:40;;;;;;;3.78;0.77;;;;;;;;;;5061340;28;20025;-54
2022/04/09 13:35:06;;;;;;;2.85;0.90;;;;;;;;;;5052359;28;20025;-53
2022/04/09 13:37:33;;;;;;;3.60;0.82;;;;;;;;;;5050859;28;20372;-52
2022/04/09 13:39:59;;;;;;;4.15;0.88;;;;;;;;;;5052565;28;20054;-55
2022/04/09 13:42:25;;;;;;;4.10;0.80;;;;;;;;;;5046891;28;20033;-54
2022/04/09 13:44:51;;;;;;;3.88;0.98;;;;;;;;;;5050422;28;20032;-50
2022/04/09 13:47:17;;;;;;;5.90;1.00;;;;;;;;;;5050390;28;20104;-53
2022/04/09 13:49:43;;;;;;;3.20;0.82;;;;;;;;;;5058932;28;20083;-51
2022/04/09 13:52:10;;;;;;;7.13;0.95;;;;;;;;;;5056281;28;20510;-50
2022/04/09 13:54:37;;;;;;;3.05;0.88;;;;;;;;;;5056170;28;20024;-50
2022/04/09 13:57:05;;;;;;;4.38;0.63;;;;;;;;;;5048379;28;20061;-49
2022/04/09 13:59:31;;;;;;;2.72;0.93;;;;;;;;;;5062282;28;20438;-50
2022/04/09 14:01:57;;;;;;;5.63;1.73;;;;;;;;;;5054525;28;20037;-52
2022/04/09 14:04:24;;;;;;;2.45;1.20;;;;;;;;;;5059261;28;20025;-53
2022/04/09 14:06:50;;;;;;;4.75;1.17;;;;;;;;;;5048828;28;20433;-55
2022/04/09 14:09:16;;;;;;;2.25;0.80;;;;;;;;;;5048615;28;20029;-55
2022/04/09 14:11:43;;;;;;;3.70;0.90;;;;;;;;;;5046566;28;20150;-55
2022/04/09 14:14:09;;;;;;;3.85;0.95;;;;;;;;;;5055902;28;20039;-55
2022/04/09 14:16:35;;;;;;;3.30;0.77;;;;;;;;;;5061073;28;20409;-56
2022/04/09 14:19:01;;;;;;;6.90;1.23;;;;;;;;;;5063173;28;20024;-53
2022/04/09 14:21:28;;;;;;;4.82;1.00;;;;;;;;;;5049783;28;20087;-55
2022/04/09 14:23:54;;;;;;;2.90;0.70;;;;;;;;;;5048729;28;20519;-53
2022/04/09 14:26:20;;;;;;;3.00;1.08;;;;;;;;;;5049432;28;20033;-53
2022/04/09 14:28:46;;;;;;;2.92;0.80;;;;;;;;;;5048352;28;20063;-56
2022/04/09 14:31:12;;;;;;;1.95;0.85;;;;;;;;;;5048162;28;20507;-55
2022/04/09 14:33:39;;;;;;;1.95;0.60;;;;;;;;;;5048288;28;20029;-55
2022/04/09 14:36:06;;;;;;;2.88;0.93;;;;;;;;;;5053301;28;20036;-54
2022/04/09 14:38:32;;;;;;;2.22;0.70;;;;;;;;;;5047953;28;20136;-56
2022/04/09 14:40:58;;;;;;;4.20;0.70;;;;;;;;;;5042974;28;20033;-55